Decoded Metar for CYHU (MONTREAL in QC, CANADA) (IATA:YHU) | Meteo·Mobile Aviation Weather
aviador You're here:

CYHU Decoded Metar

MONTREAL in QC, CANADA
Report Time2019-01-17 01:00:00
UTC Time2019-01-17 01:32:19
Flight Rules vfr VFR
Wind290° at 10 kt
W.Decomp.*RWY 28: 9.0 kt HW 4.4 kt RCW
RWY 24: 4.1 kt HW 9.1 kt RCW
W.Rank290° ranks 15
Current wind is above 290° avg. (9.4)
Visibility9999 m
Phenomena:N/A
Clouds:N/A
Expected CloudBase > 2,800 ft AGL from Temp-Dew spread
CeilingNone
Temp-13°C (ISA -28)
Dew Point-20°C (56% RH)
AAT-20.2°C
QNH1023 hPa
Density Alt-3,740 ft
Elevation89 ft
Report Wrong Elevation
Raw Report
CYHU 170100Z AUTO 29010KT 9SM CLR M13/M20 A3021 RMK SLP232=

Extra information for CYHU:More info

Metar Taf Metar & Taf Last 4 Metars F.Rules Stats Wind Profile Meteogram Temp Stats Airport Information Weather charts Add Link Nearby VenuesMetar ALERT Operation Metar Decoded Social comments